Time;durP1;ratioP1;P1;durP2;ratioP2;P2;SDS_P1;SDS_P2;PMS_P1;PMS_P2;Temp;Humidity;BMP_temperature;BMP_pressure;BME280_temperature;BME280_humidity;BME280_pressure;Samples;Min_cycle;Max_cycle;Signal;HPM_P1;HPM_P2
2022/06/02 00:01:35;;;;;;;3.33;3.00;;;12.70;99.90;;;;;;5014916;28;20694;-75
2022/06/02 00:04:43;;;;;;;3.33;3.13;;;12.80;99.90;;;;;;5010729;28;20188;-75
2022/06/02 00:07:11;;;;;;;4.13;3.23;;;12.80;99.90;;;;;;5008233;28;20250;-75
2022/06/02 00:10:02;;;;;;;3.00;2.80;;;12.90;99.90;;;;;;5037052;28;20214;-74
2022/06/02 00:12:47;;;;;;;3.30;3.10;;;12.80;99.90;;;;;;5017350;28;20183;-75
2022/06/02 00:15:31;;;;;;;3.00;2.80;;;12.70;99.90;;;;;;5006634;28;20210;-75
2022/06/02 00:17:57;;;;;;;3.33;3.13;;;12.70;99.90;;;;;;5041479;28;20206;-75
2022/06/02 00:20:34;;;;;;;4.53;3.43;;;12.60;99.90;;;;;;5026624;28;20230;-75
2022/06/02 00:23:18;;;;;;;3.80;3.50;;;12.50;99.90;;;;;;5013586;28;21031;-73
2022/06/02 00:26:13;;;;;;;3.07;2.87;;;12.60;99.90;;;;;;5016948;28;20192;-76
2022/06/02 00:29:01;;;;;;;3.30;3.10;;;12.50;99.90;;;;;;5008520;28;20188;-72
2022/06/02 00:31:48;;;;;;;2.70;2.60;;;12.50;99.90;;;;;;5009489;28;20776;-81
2022/06/02 00:34:45;;;;;;;2.90;2.70;;;12.50;99.90;;;;;;5007647;28;20673;-80
2022/06/02 00:37:35;;;;;;;3.10;2.90;;;12.40;99.90;;;;;;5014949;28;20192;-77
2022/06/02 00:40:03;;;;;;;3.97;3.20;;;12.50;99.90;;;;;;5007132;28;20311;-78
2022/06/02 00:42:36;;;;;;;3.90;3.33;;;12.50;99.90;;;;;;5016282;28;20555;-79
2022/06/02 00:45:11;;;;;;;3.47;3.27;;;12.50;99.90;;;;;;5017821;28;20195;-79
2022/06/02 00:48:01;;;;;;;2.80;2.60;;;12.50;99.90;;;;;;5016889;28;20203;-77
2022/06/02 00:50:54;;;;;;;3.00;2.80;;;12.50;99.90;;;;;;5016149;28;20203;-79
2022/06/02 00:59:56;;;;;;;3.77;3.50;;;12.40;99.90;;;;;;5006104;28;20233;-78
2022/06/02 01:02:24;;;;;;;2.93;2.73;;;12.40;99.90;;;;;;5020260;28;20183;-78
2022/06/02 01:04:50;;;;;;;3.80;3.60;;;12.40;99.90;;;;;;5042289;28;20222;-79
2022/06/02 01:07:38;;;;;;;3.37;3.17;;;12.20;99.90;;;;;;5021076;28;20174;-78
2022/06/02 01:10:26;;;;;;;3.27;2.87;;;12.20;99.90;;;;;;5007490;28;20208;-79
2022/06/02 01:13:05;;;;;;;3.50;3.23;;;12.20;99.90;;;;;;5025387;28;20181;-79
2022/06/02 01:15:52;;;;;;;4.30;3.80;;;12.20;99.90;;;;;;5012698;28;20207;-79
2022/06/02 01:18:41;;;;;;;3.47;3.20;;;12.20;99.90;;;;;;5030039;28;20227;-79
2022/06/02 01:21:27;;;;;;;3.87;3.53;;;12.10;99.90;;;;;;5019503;28;20219;-77
2022/06/02 01:24:30;;;;;;;4.37;3.53;;;12.10;99.90;;;;;;5007400;28;20192;-77
2022/06/02 01:27:18;;;;;;;4.20;3.50;;;12.10;99.90;;;;;;5043142;28;20191;-77
2022/06/02 01:29:55;;;;;;;4.93;4.63;;;12.10;99.90;;;;;;5036834;28;20208;-77
2022/06/02 01:32:28;;;;;;;4.00;3.53;;;12.00;99.90;;;;;;5015191;28;20306;-77
2022/06/02 01:35:14;;;;;;;4.97;4.57;;;11.80;99.90;;;;;;5005506;28;20196;-76
2022/06/02 01:37:44;;;;;;;3.57;3.37;;;11.80;99.90;;;;;;5017679;28;20202;-76
2022/06/02 01:40:33;;;;;;;4.63;4.23;;;11.70;99.90;;;;;;5036515;28;20480;-77
2022/06/02 01:43:25;;;;;;;4.10;3.80;;;11.60;99.90;;;;;;5023595;28;20182;-76
2022/06/02 01:46:09;;;;;;;4.10;3.80;;;11.60;99.90;;;;;;5005302;28;20210;-77
2022/06/02 01:48:56;;;;;;;4.97;4.57;;;11.60;99.90;;;;;;5007268;28;20245;-75
2022/06/02 01:51:43;;;;;;;4.53;4.13;;;11.50;99.90;;;;;;5011153;28;20209;-77
2022/06/02 01:54:36;;;;;;;3.87;3.57;;;11.50;99.90;;;;;;5019124;28;20835;-77
2022/06/02 01:57:23;;;;;;;3.60;3.40;;;11.40;99.90;;;;;;5011294;28;20215;-75
2022/06/02 02:00:20;;;;;;;5.77;5.27;;;11.40;99.90;;;;;;5019696;28;20242;-76
2022/06/02 02:03:19;;;;;;;4.97;3.93;;;11.40;99.90;;;;;;5015197;28;20611;-76
2022/06/02 02:06:14;;;;;;;3.67;3.37;;;11.30;99.90;;;;;;5015357;28;20204;-77
2022/06/02 02:09:06;;;;;;;5.10;4.40;;;11.10;99.90;;;;;;5006851;28;20191;-75
2022/06/02 02:11:53;;;;;;;4.80;4.40;;;11.10;99.90;;;;;;5004251;28;20207;-75
2022/06/02 02:14:51;;;;;;;4.03;3.73;;;11.10;99.90;;;;;;5006256;28;20189;-77
2022/06/02 02:17:42;;;;;;;4.37;3.97;;;11.10;99.90;;;;;;5027021;28;20197;-76
2022/06/02 02:20:22;;;;;;;4.50;3.60;;;11.10;99.90;;;;;;5004431;28;20241;-75
2022/06/02 02:22:54;;;;;;;4.20;3.80;;;11.00;99.90;;;;;;5018029;28;20265;-74
2022/06/02 02:25:52;;;;;;;5.70;5.20;;;11.00;99.90;;;;;;5009595;28;20774;-75
2022/06/02 02:28:33;;;;;;;4.40;4.10;;;10.90;99.90;;;;;;5025677;28;20184;-74
2022/06/02 02:31:49;;;;;;;5.10;3.83;;;10.90;99.90;;;;;;5004767;28;20217;-73
2022/06/02 02:34:43;;;;;;;4.37;4.07;;;10.90;99.90;;;;;;5011465;28;20205;-73
2022/06/02 02:37:14;;;;;;;4.37;3.97;;;10.90;99.90;;;;;;5004651;28;20198;-73
2022/06/02 02:39:54;;;;;;;4.03;3.60;;;10.80;99.90;;;;;;5016729;28;20551;-73
2022/06/02 02:42:36;;;;;;;4.57;4.17;;;10.90;99.90;;;;;;5018582;28;20207;-74
2022/06/02 02:45:27;;;;;;;4.00;3.80;;;10.80;99.90;;;;;;5026988;28;20294;-79
2022/06/02 02:48:10;;;;;;;4.40;4.10;;;10.80;99.90;;;;;;5014402;28;20225;-78
2022/06/02 02:50:40;;;;;;;5.80;3.70;;;10.70;99.90;;;;;;5020111;28;20726;-80
2022/06/02 02:53:19;;;;;;;4.70;4.07;;;10.70;99.90;;;;;;5024747;28;20213;-78
2022/06/02 02:55:59;;;;;;;5.17;4.67;;;10.70;99.90;;;;;;5017099;28;20222;-83
2022/06/02 02:58:40;;;;;;;4.97;4.57;;;10.60;99.90;;;;;;5009182;28;20186;-74
2022/06/02 03:01:40;;;;;;;33.50;27.53;;;10.70;99.90;;;;;;5032991;28;20235;-78
2022/06/02 03:04:20;;;;;;;3.53;3.23;;;10.70;99.90;;;;;;5005665;28;20199;-69
2022/06/02 03:06:47;;;;;;;8.57;6.53;;;10.60;99.90;;;;;;5003951;28;20616;-66
2022/06/02 03:09:16;;;;;;;22.00;14.40;;;10.60;99.90;;;;;;5018637;28;20207;-75
2022/06/02 03:11:54;;;;;;;142.00;127.77;;;10.50;99.90;;;;;;5015262;28;20201;-75
2022/06/02 03:14:44;;;;;;;93.00;83.23;;;10.50;99.90;;;;;;5036224;28;20288;-74
2022/06/02 03:17:15;;;;;;;10.73;6.57;;;10.50;99.90;;;;;;5013500;28;20616;-75
2022/06/02 03:19:54;;;;;;;70.13;62.57;;;10.50;99.90;;;;;;5005314;28;20710;-75
2022/06/02 03:22:45;;;;;;;4.60;4.30;;;10.40;99.90;;;;;;5013233;28;20344;-75
2022/06/02 03:25:25;;;;;;;7.97;7.30;;;10.40;99.90;;;;;;5009924;28;20198;-76
2022/06/02 03:28:32;;;;;;;4.57;4.17;;;10.30;99.90;;;;;;5017127;28;20229;-76
2022/06/02 03:31:28;;;;;;;5.10;4.60;;;10.30;99.90;;;;;;5015843;28;20759;-76
2022/06/02 03:34:35;;;;;;;4.30;4.00;;;10.40;99.90;;;;;;5009611;28;20210;-75
2022/06/02 03:37:12;;;;;;;4.83;4.33;;;10.50;99.90;;;;;;4993562;28;20274;-76
2022/06/02 03:40:10;;;;;;;4.10;3.80;;;10.60;99.90;;;;;;5009548;28;20227;-73
2022/06/02 03:43:06;;;;;;;4.50;4.10;;;10.60;99.90;;;;;;5009305;28;20162;-75
2022/06/02 03:45:49;;;;;;;5.00;4.53;;;10.70;99.90;;;;;;5009354;28;20303;-74
2022/06/02 03:48:43;;;;;;;174.73;149.87;;;10.70;99.90;;;;;;5009028;28;20215;-74
2022/06/02 03:51:22;;;;;;;402.43;364.00;;;10.60;99.90;;;;;;5031729;28;20699;-74
2022/06/02 03:54:13;;;;;;;258.40;228.10;;;10.60;99.90;;;;;;5024732;28;20238;-74
2022/06/02 03:56:50;;;;;;;327.07;297.83;;;10.70;99.90;;;;;;5028854;28;20707;-74
2022/06/02 03:59:23;;;;;;;455.03;369.77;;;10.70;99.90;;;;;;5008594;28;20274;-74
2022/06/02 04:02:10;;;;;;;428.10;328.27;;;10.70;99.90;;;;;;5007178;28;20207;-74
2022/06/02 04:04:56;;;;;;;304.20;249.90;;;10.70;99.90;;;;;;5008771;28;20209;-73
2022/06/02 04:07:42;;;;;;;45.13;28.13;;;10.80;99.90;;;;;;5008270;28;20292;-77
2022/06/02 04:10:31;;;;;;;6.50;5.90;;;10.80;99.90;;;;;;5018826;28;20203;-77
2022/06/02 04:13:38;;;;;;;6.73;3.93;;;10.90;99.90;;;;;;5017125;28;20660;-77
2022/06/02 04:16:26;;;;;;;5.00;3.57;;;10.90;99.90;;;;;;5019062;28;20211;-76
2022/06/02 04:22:39;;;;;;;4.63;4.23;;;10.90;99.90;;;;;;5006736;28;20256;-75
2022/06/02 04:25:41;;;;;;;4.70;4.30;;;11.00;99.90;;;;;;5009370;28;20190;-75
2022/06/02 04:28:17;;;;;;;35.87;28.20;;;11.10;99.90;;;;;;5030670;28;20218;-75
2022/06/02 04:31:23;;;;;;;269.50;163.20;;;11.10;99.90;;;;;;5013056;28;20292;-74
2022/06/02 04:34:10;;;;;;;123.07;84.67;;;11.20;99.90;;;;;;5023295;28;20196;-74
2022/06/02 04:37:02;;;;;;;4.93;4.53;;;11.40;99.90;;;;;;5006322;28;20208;-74
2022/06/02 04:40:03;;;;;;;35.53;31.63;;;11.30;99.90;;;;;;5008145;28;20440;-74
2022/06/02 04:42:58;;;;;;;27.70;24.43;;;11.30;99.90;;;;;;5027780;28;20244;-75
2022/06/02 04:45:49;;;;;;;26.30;22.23;;;11.40;99.90;;;;;;5005660;28;20704;-75
2022/06/02 04:48:50;;;;;;;275.40;249.00;;;11.50;99.90;;;;;;5023042;28;20218;-75
2022/06/02 04:51:31;;;;;;;133.40;121.40;;;11.50;99.90;;;;;;5030942;28;20231;-75
2022/06/02 04:53:57;;;;;;;128.33;117.33;;;11.50;99.90;;;;;;5017166;28;20225;-75
2022/06/02 04:56:30;;;;;;;178.10;162.13;;;11.40;99.90;;;;;;5013357;28;20713;-75
2022/06/02 04:59:11;;;;;;;118.47;106.60;;;11.40;99.90;;;;;;5007630;28;20287;-75
2022/06/02 05:01:55;;;;;;;62.20;49.47;;;11.50;99.90;;;;;;5017726;28;20564;-73
2022/06/02 05:04:45;;;;;;;188.13;173.67;;;11.50;99.90;;;;;;5011533;28;20286;-74
2022/06/02 05:07:10;;;;;;;261.43;236.13;;;11.50;99.90;;;;;;5018213;28;20199;-74
2022/06/02 05:09:58;;;;;;;7.37;5.70;;;11.60;99.90;;;;;;5028141;28;20430;-74
2022/06/02 05:12:36;;;;;;;4.27;3.97;;;11.70;99.90;;;;;;5019755;28;20183;-75
2022/06/02 05:15:15;;;;;;;5.10;4.70;;;11.60;99.90;;;;;;5022709;28;20208;-75
2022/06/02 05:17:52;;;;;;;4.90;4.30;;;11.90;99.90;;;;;;5024943;28;20253;-74
2022/06/02 05:20:32;;;;;;;5.07;4.30;;;12.00;99.90;;;;;;5012502;28;20225;-75
2022/06/02 05:23:18;;;;;;;4.80;4.40;;;11.90;99.90;;;;;;5020005;28;20678;-75
2022/06/02 05:26:01;;;;;;;5.73;5.17;;;12.10;99.90;;;;;;5013932;28;20286;-75
2022/06/02 05:28:50;;;;;;;4.43;4.03;;;12.10;99.90;;;;;;5007037;28;20192;-76
2022/06/02 05:31:46;;;;;;;5.63;5.00;;;12.10;99.90;;;;;;5013200;28;20684;-78
2022/06/02 05:34:38;;;;;;;69.00;64.17;;;12.10;99.90;;;;;;5015594;28;20184;-78
2022/06/02 05:37:32;;;;;;;145.93;137.87;;;12.10;99.90;;;;;;5026470;28;20188;-78
2022/06/02 05:40:16;;;;;;;12.70;8.17;;;11.90;99.90;;;;;;5009945;28;20211;-75
2022/06/02 05:43:19;;;;;;;6.80;5.97;;;11.80;99.90;;;;;;5012202;28;20192;-74
2022/06/02 05:46:17;;;;;;;6.37;5.77;;;11.80;99.90;;;;;;5003750;28;20231;-76
2022/06/02 05:49:09;;;;;;;7.30;6.60;;;11.80;99.90;;;;;;5006513;28;20249;-68
2022/06/02 05:52:24;;;;;;;23.27;21.27;;;11.90;99.90;;;;;;5012280;28;20267;-76
2022/06/02 05:55:25;;;;;;;131.73;123.90;;;11.80;99.90;;;;;;5022831;28;20318;-83
2022/06/02 05:58:06;;;;;;;8.23;6.90;;;11.90;99.90;;;;;;5043678;28;20281;-79
2022/06/02 06:01:01;;;;;;;8.63;7.73;;;12.10;99.90;;;;;;5017901;28;20222;-81
2022/06/02 06:03:48;;;;;;;8.87;8.07;;;12.30;99.90;;;;;;5016151;28;20757;-79
2022/06/02 06:06:32;;;;;;;8.43;6.93;;;12.40;99.90;;;;;;5019628;28;20270;-77
2022/06/02 06:09:32;;;;;;;8.00;7.20;;;12.60;99.90;;;;;;5020771;28;20229;-80
2022/06/02 06:12:32;;;;;;;10.50;8.93;;;12.90;99.90;;;;;;5026714;28;20781;-80
2022/06/02 06:15:17;;;;;;;10.20;9.30;;;13.00;99.90;;;;;;5019387;28;20206;-81
2022/06/02 06:17:59;;;;;;;10.53;8.13;;;12.80;99.90;;;;;;5043155;28;20771;-82
2022/06/02 06:20:54;;;;;;;9.13;8.33;;;12.30;99.90;;;;;;5017274;28;20960;-81
2022/06/02 06:23:42;;;;;;;8.20;7.50;;;12.30;99.90;;;;;;5040254;28;20196;-82
2022/06/02 06:26:20;;;;;;;8.73;7.47;;;12.60;99.90;;;;;;5006332;28;20641;-86
2022/06/02 06:29:07;;;;;;;9.90;8.97;;;12.60;99.90;;;;;;5006946;28;20198;-81
2022/06/02 06:31:55;;;;;;;10.60;7.67;;;12.70;99.90;;;;;;5005016;28;20265;-80
2022/06/02 06:34:31;;;;;;;8.10;7.30;;;12.70;99.90;;;;;;5006229;28;20242;-81
2022/06/02 06:37:06;;;;;;;9.37;8.07;;;12.70;99.90;;;;;;5006568;28;20230;-78
2022/06/02 06:40:02;;;;;;;9.83;8.80;;;13.00;99.90;;;;;;5021934;28;20219;-77
2022/06/02 06:42:49;;;;;;;7.97;7.30;;;13.10;99.90;;;;;;5026153;28;20260;-77
2022/06/02 06:45:31;;;;;;;8.63;7.83;;;13.20;99.90;;;;;;5011024;28;20199;-81
2022/06/02 06:48:06;;;;;;;10.30;9.40;;;13.40;99.90;;;;;;5006109;28;20949;-78
2022/06/02 06:50:52;;;;;;;8.97;8.17;;;13.50;99.90;;;;;;5010097;28;20798;-77
2022/06/02 06:53:35;;;;;;;8.03;7.03;;;13.50;99.90;;;;;;5005539;28;20199;-77
2022/06/02 06:56:22;;;;;;;7.60;6.80;;;13.70;99.90;;;;;;5003980;28;20212;-78
2022/06/02 06:59:12;;;;;;;8.70;7.83;;;13.80;99.90;;;;;;5007592;28;20667;-88
2022/06/02 07:01:42;;;;;;;8.70;7.40;;;13.70;99.90;;;;;;5014033;28;20261;-79
2022/06/02 07:04:37;;;;;;;8.73;7.90;;;13.80;99.90;;;;;;5014336;28;20242;-82
2022/06/02 07:07:35;;;;;;;9.60;7.37;;;14.00;99.90;;;;;;5016572;28;20179;-77
2022/06/02 07:10:19;;;;;;;7.10;6.50;;;14.10;99.90;;;;;;5009086;28;20208;-81
2022/06/02 07:13:01;;;;;;;9.20;7.57;;;14.00;99.90;;;;;;5013767;28;20661;-84
2022/06/02 07:15:40;;;;;;;8.27;7.40;;;14.30;99.90;;;;;;5007161;28;20200;-68
2022/06/02 07:18:23;;;;;;;7.73;6.90;;;14.30;99.90;;;;;;5004790;28;20666;-68
2022/06/02 07:21:12;;;;;;;7.20;6.50;;;14.20;99.90;;;;;;5015458;28;20306;-68
2022/06/02 07:24:03;;;;;;;7.20;6.43;;;14.20;99.90;;;;;;5006800;28;20211;-77
2022/06/02 07:26:47;;;;;;;6.73;5.80;;;14.30;99.90;;;;;;5004081;28;20210;-80
2022/06/02 07:29:29;;;;;;;6.03;5.53;;;14.50;99.90;;;;;;5007483;28;20180;-81
2022/06/02 07:32:09;;;;;;;6.33;5.73;;;14.60;99.90;;;;;;5005589;28;20196;-68
2022/06/02 07:35:04;;;;;;;6.20;5.60;;;14.60;99.90;;;;;;5026386;28;20202;-67
2022/06/02 07:37:42;;;;;;;5.60;5.10;;;14.50;99.90;;;;;;5017021;28;20200;-67
2022/06/02 07:40:25;;;;;;;7.27;4.33;;;14.70;99.90;;;;;;5035006;28;20314;-67
2022/06/02 07:43:15;;;;;;;9.63;5.10;;;14.60;99.90;;;;;;5005118;28;20204;-67
2022/06/02 07:45:55;;;;;;;4.53;3.97;;;14.80;99.90;;;;;;5013604;28;20211;-69
2022/06/02 07:48:29;;;;;;;4.43;4.13;;;14.90;99.90;;;;;;5005586;28;20203;-67
2022/06/02 07:50:59;;;;;;;7.47;3.80;;;15.00;99.90;;;;;;5016438;28;20202;-69
2022/06/02 07:53:51;;;;;;;5.07;3.90;;;14.90;99.90;;;;;;5026647;28;20192;-67
2022/06/02 07:56:43;;;;;;;5.83;4.17;;;15.00;99.90;;;;;;5013776;28;20278;-68
2022/06/02 07:59:23;;;;;;;3.97;3.60;;;15.10;99.90;;;;;;5020317;28;20550;-67
2022/06/02 08:02:27;;;;;;;5.77;4.30;;;15.00;99.90;;;;;;5009831;28;20236;-68
2022/06/02 08:05:01;;;;;;;4.63;4.23;;;15.00;99.90;;;;;;5016174;28;20200;-66
2022/06/02 08:07:41;;;;;;;3.40;3.20;;;15.00;99.90;;;;;;5014782;28;20258;-68
2022/06/02 08:10:31;;;;;;;4.17;3.80;;;15.00;99.90;;;;;;5016993;28;20286;-65
2022/06/02 08:13:17;;;;;;;3.30;3.07;;;15.00;99.90;;;;;;5010854;28;20216;-66
2022/06/02 08:16:16;;;;;;;4.47;3.10;;;15.10;99.90;;;;;;5006488;28;20207;-67
2022/06/02 08:19:04;;;;;;;3.30;3.10;;;15.30;99.90;;;;;;5008009;28;20208;-67
2022/06/02 08:21:46;;;;;;;3.67;3.13;;;15.30;99.90;;;;;;5005951;28;20216;-67
2022/06/02 08:24:24;;;;;;;4.37;2.93;;;15.50;99.90;;;;;;5008168;28;20635;-81
2022/06/02 08:27:20;;;;;;;2.37;2.17;;;15.60;99.90;;;;;;5012656;28;20227;-68
2022/06/02 08:30:13;;;;;;;2.43;2.13;;;15.80;98.50;;;;;;5008778;28;20949;-68
2022/06/02 08:33:09;;;;;;;2.10;2.00;;;15.60;98.60;;;;;;5016842;28;20199;-68
2022/06/02 08:35:47;;;;;;;2.73;2.20;;;15.50;98.60;;;;;;5015894;28;20306;-69
2022/06/02 08:38:46;;;;;;;3.17;2.10;;;15.40;98.10;;;;;;5010532;28;20657;-66
2022/06/02 08:41:42;;;;;;;2.80;2.60;;;15.50;97.70;;;;;;5018839;28;20302;-68
2022/06/02 08:44:29;;;;;;;4.33;2.20;;;15.50;96.20;;;;;;5021184;28;20286;-67
2022/06/02 08:47:34;;;;;;;2.23;1.93;;;15.70;96.20;;;;;;5021537;28;20191;-68
2022/06/02 08:50:34;;;;;;;2.47;2.23;;;15.50;95.60;;;;;;5015188;28;20234;-66
2022/06/02 08:53:57;;;;;;;2.90;1.83;;;15.40;95.60;;;;;;5019748;28;20274;-68
2022/06/02 08:56:56;;;;;;;4.47;2.20;;;15.60;97.30;;;;;;5019614;28;20242;-67
2022/06/02 08:59:43;;;;;;;5.87;2.17;;;15.90;95.80;;;;;;5006826;28;20195;-66
2022/06/02 09:02:56;;;;;;;5.53;2.57;;;16.00;95.30;;;;;;5006871;28;20203;-63
2022/06/02 09:05:49;;;;;;;2.80;2.13;;;16.20;95.80;;;;;;5011193;28;20646;-68
2022/06/02 09:08:54;;;;;;;2.40;2.20;;;16.30;94.80;;;;;;5006841;28;20748;-68
2022/06/02 09:11:30;;;;;;;2.03;1.87;;;16.20;95.60;;;;;;5012254;28;20668;-67
2022/06/02 09:14:32;;;;;;;2.93;1.97;;;16.50;94.50;;;;;;5018616;28;20196;-68
2022/06/02 09:17:15;;;;;;;1.70;1.60;;;16.70;94.30;;;;;;5013070;28;20204;-66
2022/06/02 09:20:39;;;;;;;1.80;1.70;;;16.70;94.30;;;;;;5013173;28;20199;-67
2022/06/02 09:23:18;;;;;;;2.10;1.90;;;16.70;94.40;;;;;;4975365;28;20196;-67
2022/06/02 09:26:12;;;;;;;2.40;2.20;;;16.60;94.90;;;;;;4975234;28;20207;-66
2022/06/02 09:29:03;;;;;;;2.67;2.30;;;16.40;95.00;;;;;;5014866;28;20670;-66
2022/06/02 09:31:40;;;;;;;4.40;2.00;;;16.30;94.60;;;;;;5019040;28;20203;-67
2022/06/02 09:34:44;;;;;;;1.87;1.77;;;16.30;94.60;;;;;;5017316;28;20183;-69
2022/06/02 09:37:40;;;;;;;2.97;1.60;;;16.40;94.40;;;;;;5006505;28;20856;-70
2022/06/02 09:40:28;;;;;;;3.70;1.97;;;16.60;93.20;;;;;;5010402;28;20617;-68
2022/06/02 09:43:13;;;;;;;1.80;1.57;;;16.90;93.10;;;;;;5015545;28;20289;-68
2022/06/02 09:46:07;;;;;;;3.27;1.50;;;17.10;93.20;;;;;;5010795;28;20270;-67
2022/06/02 09:48:51;;;;;;;2.10;1.53;;;17.30;92.80;;;;;;5016515;28;20204;-69
2022/06/02 09:51:42;;;;;;;3.33;2.50;;;17.40;90.50;;;;;;5013523;28;20482;-69
2022/06/02 09:54:20;;;;;;;3.20;2.70;;;17.60;90.70;;;;;;5015943;28;20228;-67
2022/06/02 09:57:55;;;;;;;3.57;1.97;;;17.80;89.30;;;;;;5010742;28;20200;-67
2022/06/02 10:00:04;;;;;;;4.10;3.80;;;17.60;90.90;;;;;;5013930;28;20216;-67
2022/06/02 10:03:15;;;;;;;2.27;2.07;;;17.30;91.40;;;;;;5015693;28;20188;-67
2022/06/02 10:05:54;;;;;;;16.97;6.50;;;17.00;91.50;;;;;;5014013;28;20234;-67
2022/06/02 10:08:58;;;;;;;1.47;1.37;;;17.10;92.20;;;;;;5017663;28;20179;-67
2022/06/02 10:15:24;;;;;;;2.77;2.47;;;17.30;90.90;;;;;;5003761;28;20207;-68
2022/06/02 10:18:00;;;;;;;1.63;1.33;;;17.60;87.40;;;;;;5017730;28;20235;-68
2022/06/02 10:20:56;;;;;;;5.90;3.43;;;17.30;89.80;;;;;;5008017;28;20227;-67
2022/06/02 10:23:47;;;;;;;14.33;7.40;;;17.50;89.90;;;;;;5015548;28;20182;-67
2022/06/02 10:26:25;;;;;;;4.23;2.93;;;17.70;89.00;;;;;;5012793;28;20654;-67
2022/06/02 10:28:59;;;;;;;32.67;13.87;;;17.90;87.90;;;;;;5012270;28;20184;-66
2022/06/02 10:31:43;;;;;;;4.47;3.00;;;17.90;87.70;;;;;;5018165;28;20204;-66
2022/06/02 10:34:31;;;;;;;21.77;17.57;;;18.00;87.80;;;;;;5013080;28;20653;-65
2022/06/02 10:37:16;;;;;;;1.90;1.80;;;17.80;88.20;;;;;;5011398;28;20815;-66
2022/06/02 10:40:02;;;;;;;74.50;69.37;;;17.90;88.20;;;;;;5014114;28;20220;-65
2022/06/02 10:43:06;;;;;;;179.37;169.80;;;17.70;84.50;;;;;;5014555;28;20188;-65
2022/06/02 10:45:56;;;;;;;1.63;1.50;;;17.70;86.40;;;;;;5011080;28;20205;-65
2022/06/02 10:48:59;;;;;;;1.93;1.13;;;17.60;83.30;;;;;;5017123;28;20258;-65
2022/06/02 10:51:52;;;;;;;2.67;1.50;;;17.50;84.00;;;;;;5020396;28;20641;-65
2022/06/02 10:54:46;;;;;;;2.60;1.80;;;17.50;84.60;;;;;;5038768;28;20410;-65
2022/06/02 10:57:11;;;;;;;3.80;1.53;;;17.60;84.90;;;;;;5005166;28;20258;-65
2022/06/02 11:00:03;;;;;;;1.40;1.33;;;17.60;85.30;;;;;;5022296;28;20211;-67
2022/06/02 11:03:07;;;;;;;2.20;1.80;;;17.90;86.20;;;;;;5012738;28;20193;-66
2022/06/02 11:06:10;;;;;;;5.07;4.13;;;18.00;82.80;;;;;;5011615;28;20200;-65
2022/06/02 11:09:12;;;;;;;41.40;38.00;;;18.00;79.70;;;;;;5014176;28;20207;-65
2022/06/02 11:11:37;;;;;;;1.40;1.30;;;18.60;77.60;;;;;;5011973;28;20749;-64
2022/06/02 11:14:35;;;;;;;1.97;1.20;;;18.70;76.90;;;;;;5024105;28;20204;-65
2022/06/02 11:17:07;;;;;;;1.23;1.13;;;18.60;78.40;;;;;;5027837;28;20199;-66
2022/06/02 11:20:28;;;;;;;1.53;1.43;;;19.00;78.60;;;;;;5016663;28;20238;-65
2022/06/02 11:23:05;;;;;;;2.30;1.40;;;18.70;75.90;;;;;;4982389;28;20290;-64
2022/06/02 11:25:45;;;;;;;3.17;1.43;;;18.60;76.00;;;;;;4980735;28;20202;-65
2022/06/02 11:28:33;;;;;;;1.30;1.20;;;18.40;76.50;;;;;;5002979;28;20274;-65
2022/06/02 11:31:36;;;;;;;3.53;1.30;;;18.00;76.90;;;;;;5015319;28;20699;-63
2022/06/02 11:34:35;;;;;;;2.13;1.63;;;18.20;77.00;;;;;;5012505;28;20407;-63
2022/06/02 11:37:39;;;;;;;2.53;1.30;;;18.80;76.20;;;;;;5012234;28;20945;-64
2022/06/02 11:40:20;;;;;;;1.37;1.27;;;19.00;73.70;;;;;;5018435;28;20202;-65
2022/06/02 11:43:13;;;;;;;2.17;1.30;;;18.90;72.70;;;;;;5015220;28;20201;-65
2022/06/02 11:46:05;;;;;;;2.03;1.07;;;19.20;71.20;;;;;;5019930;28;20201;-64
2022/06/02 11:48:54;;;;;;;0.70;0.70;;;19.90;71.00;;;;;;5015018;28;20207;-65
2022/06/02 11:51:27;;;;;;;2.07;1.23;;;20.70;65.30;;;;;;5028628;28;20187;-65
2022/06/02 11:54:12;;;;;;;1.17;1.17;;;21.40;61.80;;;;;;5012597;28;20292;-65
2022/06/02 11:56:45;;;;;;;1.37;1.10;;;22.20;58.90;;;;;;5011957;28;20531;-65
2022/06/02 11:59:45;;;;;;;0.82;0.82;;;22.50;58.30;;;;;;5013849;28;20307;-65
2022/06/02 12:02:44;;;;;;;210.80;198.27;;;23.40;57.20;;;;;;5006433;28;20643;-65
2022/06/02 12:05:13;;;;;;;1.10;1.10;;;24.30;54.20;;;;;;5022943;28;20227;-65
2022/06/02 12:08:11;;;;;;;1.00;1.00;;;22.90;54.30;;;;;;5028957;28;20197;-64
2022/06/02 12:11:10;;;;;;;1.10;1.00;;;21.70;55.70;;;;;;5026957;28;20204;-65
2022/06/02 12:13:56;;;;;;;1.30;1.20;;;21.00;57.00;;;;;;5018265;28;20269;-64
2022/06/02 12:16:40;;;;;;;260.30;243.93;;;20.40;56.10;;;;;;5009851;28;20202;-65
2022/06/02 12:19:15;;;;;;;462.53;433.90;;;20.00;57.90;;;;;;5017901;28;20187;-64
2022/06/02 12:22:04;;;;;;;478.30;447.67;;;20.80;57.80;;;;;;5013071;28;20302;-64
2022/06/02 12:24:50;;;;;;;224.13;206.63;;;21.10;57.10;;;;;;5008379;28;20185;-63
2022/06/02 12:27:44;;;;;;;96.53;88.70;;;20.90;56.60;;;;;;5008015;28;20195;-65
2022/06/02 12:30:37;;;;;;;460.77;425.00;;;22.00;56.80;;;;;;5006178;28;20289;-65
2022/06/02 12:33:03;;;;;;;616.73;578.37;;;22.00;55.20;;;;;;5024085;28;20684;-65
2022/06/02 12:35:50;;;;;;;2.83;1.95;;;21.50;54.60;;;;;;5030244;28;20201;-64
2022/06/02 12:38:21;;;;;;;210.93;195.03;;;22.20;54.10;;;;;;5008416;28;20196;-65
2022/06/02 12:41:13;;;;;;;162.18;152.30;;;21.90;53.70;;;;;;5026911;28;20217;-65
2022/06/02 12:44:04;;;;;;;4.43;1.77;;;21.40;54.00;;;;;;5008148;28;20195;-64
2022/06/02 12:46:55;;;;;;;2.35;2.17;;;21.70;54.40;;;;;;5006259;28;20202;-71
2022/06/02 12:49:38;;;;;;;2.33;1.40;;;23.50;52.40;;;;;;5027889;28;20697;-68
2022/06/02 12:52:41;;;;;;;3.20;1.63;;;23.90;51.00;;;;;;5020558;28;20199;-63
2022/06/02 12:55:37;;;;;;;8.48;7.75;;;23.00;52.80;;;;;;5037301;28;20266;-65
2022/06/02 12:58:38;;;;;;;5.57;4.30;;;23.20;53.40;;;;;;5013617;28;20240;-64
2022/06/02 13:01:32;;;;;;;1.73;1.63;;;23.80;51.20;;;;;;5000669;28;20234;-63
2022/06/02 13:04:24;;;;;;;1.83;1.38;;;22.30;50.90;;;;;;5016863;28;20197;-64
2022/06/02 13:07:27;;;;;;;1.77;1.67;;;22.20;51.00;;;;;;5007725;28;20191;-64
2022/06/02 13:09:59;;;;;;;2.67;1.50;;;22.60;51.10;;;;;;5027252;28;20210;-64
2022/06/02 13:13:15;;;;;;;2.72;1.55;;;23.00;50.50;;;;;;5015891;28;20183;-65
2022/06/02 13:16:06;;;;;;;2.45;1.55;;;23.00;50.80;;;;;;5006876;28;20203;-65
2022/06/02 13:18:57;;;;;;;1.73;1.40;;;23.90;49.60;;;;;;5012839;28;20191;-64
2022/06/02 13:21:58;;;;;;;2.13;2.00;;;23.90;48.70;;;;;;5005222;28;20222;-64
2022/06/02 13:25:15;;;;;;;18.00;16.25;;;24.00;49.30;;;;;;5015346;28;20236;-64
2022/06/02 13:28:18;;;;;;;3.70;2.50;;;25.20;47.40;;;;;;4997298;28;20533;-64
2022/06/02 13:31:10;;;;;;;4.30;2.60;;;25.70;46.50;;;;;;5021016;28;20953;-64
2022/06/02 13:33:44;;;;;;;83.38;77.10;;;26.20;45.10;;;;;;5007086;28;20192;-63
2022/06/02 13:36:18;;;;;;;580.63;541.67;;;26.20;44.70;;;;;;5016981;28;20623;-63
2022/06/02 13:39:22;;;;;;;2.58;2.25;;;24.20;46.60;;;;;;5007044;28;20251;-63
2022/06/02 13:41:53;;;;;;;1.75;1.65;;;23.20;47.90;;;;;;5006144;28;20215;-63
2022/06/02 13:44:45;;;;;;;2.20;1.88;;;22.40;48.80;;;;;;5033089;28;20962;-62
2022/06/02 13:47:37;;;;;;;131.13;122.22;;;22.00;49.90;;;;;;5014542;28;20233;-64
2022/06/02 13:50:21;;;;;;;919.88;862.65;;;22.10;51.20;;;;;;5009893;28;20216;-65
2022/06/02 13:53:19;;;;;;;6.43;3.35;;;22.10;51.20;;;;;;5019651;28;20677;-64
2022/06/02 13:59:19;;;;;;;1.95;1.80;;;21.90;51.20;;;;;;5021627;28;20382;-64
2022/06/02 14:02:16;;;;;;;2.25;2.13;;;22.50;51.60;;;;;;5004347;28;20223;-63
2022/06/02 14:05:18;;;;;;;24.10;11.93;;;22.70;49.70;;;;;;5007074;28;20476;-62
2022/06/02 14:08:09;;;;;;;2.78;2.53;;;22.90;50.80;;;;;;5023979;28;20219;-61
2022/06/02 14:10:49;;;;;;;6.53;5.13;;;22.90;51.10;;;;;;5026735;28;20671;-62
2022/06/02 14:13:33;;;;;;;3.20;3.00;;;22.90;51.10;;;;;;5005130;28;20210;-63
2022/06/02 14:16:17;;;;;;;2.15;2.05;;;22.50;50.60;;;;;;5036807;28;20179;-63
2022/06/02 14:19:06;;;;;;;5.13;4.57;;;22.30;51.00;;;;;;5012839;28;20199;-64
2022/06/02 14:21:50;;;;;;;6.88;5.63;;;21.70;51.40;;;;;;5021656;28;20218;-64
2022/06/02 14:24:31;;;;;;;9.03;8.10;;;21.20;52.40;;;;;;5015799;28;20242;-63
2022/06/02 14:27:09;;;;;;;2.03;1.92;;;21.10;53.10;;;;;;5016767;28;20278;-64
2022/06/02 14:29:49;;;;;;;2.58;1.83;;;22.00;51.70;;;;;;5013460;28;20220;-64
2022/06/02 14:33:07;;;;;;;2.28;2.08;;;22.20;51.60;;;;;;5008807;28;20183;-65
2022/06/02 14:35:42;;;;;;;2.78;2.42;;;22.60;51.20;;;;;;5003037;28;20687;-65
2022/06/02 14:38:34;;;;;;;2.10;1.90;;;23.20;50.90;;;;;;5014273;28;20524;-65
2022/06/02 14:41:09;;;;;;;1.98;1.88;;;22.90;51.20;;;;;;5014735;28;20215;-65
2022/06/02 14:43:51;;;;;;;1.10;1.05;;;24.00;50.30;;;;;;5013825;28;20285;-65